Tramore, Ireland
Current Conditions -  °F | °C
As of 12:00 PM on Thursday 29 Jan 2015 (Local Time) from EIWF Reporting Station
Broken Clouds Broken Clouds  
Wind Chill: 29°   Ceiling: 3000
Heat Index: 37°   Visibility: 6mi
Dew Point: 36°   Wind: 14mph
Humidity: 93%   Direction: 320°NW
Pressure: 29.12"   Gusts: 26mph
Location:  52.16°N, 7.16°W
Report Text: EIWF 291200Z 32012G23KT 290V350 9999 FEW005 SCT018CB BKN030 03/02 Q0986 R03/1/////
Loading
Personal Weather Stations






























Interactive Weather Map New forecast layout! Learn more

10-Day Weather Forecast

Advertisements
Track Severe Weather on mobile